Time;durP1;ratioP1;P1;durP2;ratioP2;P2;SDS_P1;SDS_P2;PMS_P1;PMS_P2;Temp;Humidity;BMP_temperature;BMP_pressure;BME280_temperature;BME280_humidity;BME280_pressure;Samples;Min_cycle;Max_cycle;Signal;HPM_P1;HPM_P2
2022/06/13 00:00:09;;;;;;;10.10;4.80;;;15.70;91.20;;;;;;5033400;28;20845;-62
2022/06/13 00:02:37;;;;;;;8.80;4.07;;;15.60;91.40;;;;;;5033043;28;20453;-63
2022/06/13 00:05:05;;;;;;;6.20;3.20;;;15.60;91.60;;;;;;5033072;28;20973;-63
2022/06/13 00:07:34;;;;;;;9.33;3.47;;;15.50;91.80;;;;;;5032889;28;21003;-63
2022/06/13 00:10:02;;;;;;;9.17;4.40;;;15.40;91.90;;;;;;5033103;28;20871;-63
2022/06/13 00:12:29;;;;;;;10.37;4.23;;;15.40;92.20;;;;;;5032904;28;20540;-63
2022/06/13 00:14:56;;;;;;;11.10;3.90;;;15.30;92.40;;;;;;5035298;28;20481;-63
2022/06/13 00:17:24;;;;;;;9.07;3.43;;;15.30;92.50;;;;;;5044998;28;20463;-63
2022/06/13 00:19:52;;;;;;;9.93;4.80;;;15.30;92.60;;;;;;5046904;28;20471;-63
2022/06/13 00:22:19;;;;;;;6.50;4.10;;;15.30;92.70;;;;;;5046826;28;20446;-64
2022/06/13 00:24:48;;;;;;;7.43;4.37;;;15.30;92.70;;;;;;5045501;28;20441;-63
2022/06/13 00:27:16;;;;;;;8.40;4.17;;;15.30;92.70;;;;;;5041372;28;20440;-63
2022/06/13 00:29:47;;;;;;;9.77;4.60;;;15.30;92.80;;;;;;5039278;28;20551;-63
2022/06/13 00:32:14;;;;;;;12.40;4.50;;;15.30;92.80;;;;;;5042869;28;20437;-63
2022/06/13 00:34:42;;;;;;;8.80;3.70;;;15.30;92.70;;;;;;5044222;28;20930;-63
2022/06/13 00:37:09;;;;;;;12.50;4.20;;;15.30;92.80;;;;;;5044413;28;20452;-63
2022/06/13 00:39:36;;;;;;;15.90;4.37;;;15.30;92.80;;;;;;5041804;28;20510;-62
2022/06/13 00:42:06;;;;;;;11.83;3.77;;;15.20;92.80;;;;;;5038835;28;20467;-61
2022/06/13 00:44:35;;;;;;;7.00;3.77;;;15.20;93.00;;;;;;5037129;28;20472;-63
2022/06/13 00:47:03;;;;;;;4.63;3.40;;;15.10;93.10;;;;;;5037314;28;20441;-63
2022/06/13 00:49:37;;;;;;;7.83;4.43;;;15.10;93.30;;;;;;5036589;28;20931;-63
2022/06/13 00:52:10;;;;;;;6.80;4.07;;;15.10;93.30;;;;;;5036763;28;20441;-63
2022/06/13 00:54:40;;;;;;;8.30;3.77;;;15.10;93.30;;;;;;5036678;28;20464;-63
2022/06/13 00:57:14;;;;;;;11.03;4.70;;;15.20;93.40;;;;;;5036437;28;20440;-63
2022/06/13 00:59:41;;;;;;;8.30;4.20;;;15.20;93.30;;;;;;5036457;28;20465;-63
2022/06/13 01:02:09;;;;;;;10.17;4.03;;;15.20;93.30;;;;;;5036657;28;20544;-63
2022/06/13 01:04:39;;;;;;;10.70;5.07;;;15.10;93.30;;;;;;5036314;28;20532;-62
2022/06/13 01:07:08;;;;;;;8.90;3.67;;;15.10;93.40;;;;;;5036305;28;20433;-63
2022/06/13 01:12:20;;;;;;;9.60;3.50;;;15.00;93.60;;;;;;5013946;28;20931;-63
2022/06/13 01:15:09;;;;;;;8.67;4.63;;;14.90;93.70;;;;;;5036170;28;20468;-63
2022/06/13 01:17:50;;;;;;;8.17;4.10;;;14.90;93.90;;;;;;5036704;28;20437;-63
2022/06/13 01:20:40;;;;;;;15.70;4.07;;;14.70;94.20;;;;;;5036810;28;20432;-63
2022/06/13 01:23:27;;;;;;;8.97;4.57;;;14.70;94.40;;;;;;5037101;28;20441;-62
2022/06/13 01:26:27;;;;;;;10.07;3.83;;;14.60;94.70;;;;;;5037501;28;20425;-62
2022/06/13 01:29:34;;;;;;;7.37;3.93;;;14.50;94.90;;;;;;5037870;28;20884;-63
2022/06/13 01:32:08;;;;;;;7.53;4.27;;;14.50;95.10;;;;;;5037903;28;20460;-62
2022/06/13 01:34:42;;;;;;;10.40;5.40;;;14.50;95.30;;;;;;5038082;28;20968;-63
2022/06/13 01:37:23;;;;;;;14.20;4.83;;;14.40;95.40;;;;;;5035386;28;20530;-62
2022/06/13 01:40:06;;;;;;;8.57;4.60;;;14.40;95.70;;;;;;5036739;28;20475;-62
2022/06/13 01:42:41;;;;;;;12.27;4.50;;;14.40;95.90;;;;;;5036602;28;20986;-62
2022/06/13 01:45:16;;;;;;;10.20;4.40;;;14.30;96.00;;;;;;5036454;28;20463;-63
2022/06/13 01:50:31;;;;;;;10.43;5.20;;;14.20;96.20;;;;;;5074439;28;20961;-59
2022/06/13 01:53:07;;;;;;;9.30;4.90;;;14.10;96.50;;;;;;5075335;28;20438;-60
2022/06/13 01:55:45;;;;;;;9.53;4.47;;;14.10;96.70;;;;;;5075247;28;20474;-59
2022/06/13 01:58:18;;;;;;;9.43;4.67;;;14.00;96.80;;;;;;5074893;28;20897;-60
2022/06/13 02:00:52;;;;;;;11.00;4.47;;;14.00;97.00;;;;;;5075096;28;20439;-59
2022/06/13 02:03:26;;;;;;;8.77;4.70;;;13.90;97.10;;;;;;5075113;28;20431;-59
2022/06/13 02:06:00;;;;;;;13.77;4.47;;;13.90;97.30;;;;;;5074920;28;20427;-59
2022/06/13 02:08:32;;;;;;;7.77;3.97;;;13.90;97.50;;;;;;5075095;28;20467;-59
2022/06/13 02:11:04;;;;;;;9.27;4.50;;;13.80;97.50;;;;;;5075042;28;20503;-59
2022/06/13 02:13:37;;;;;;;7.77;4.57;;;13.80;97.60;;;;;;5074742;28;20432;-59
2022/06/13 02:16:09;;;;;;;6.20;4.33;;;13.80;97.60;;;;;;5074679;28;21002;-59
2022/06/13 02:18:42;;;;;;;6.77;3.90;;;13.80;97.90;;;;;;5074583;28;20470;-59
2022/06/13 02:21:15;;;;;;;5.83;4.30;;;13.80;98.00;;;;;;5074697;28;20845;-59
2022/06/13 02:23:48;;;;;;;7.60;4.33;;;13.70;98.10;;;;;;5074720;28;20466;-59
2022/06/13 02:26:20;;;;;;;9.77;4.47;;;13.70;98.20;;;;;;5074735;28;20431;-59
2022/06/13 02:28:53;;;;;;;9.27;4.43;;;13.80;98.20;;;;;;5074432;28;20984;-59
2022/06/13 02:31:25;;;;;;;11.03;4.50;;;13.70;98.30;;;;;;5074745;28;20436;-59
2022/06/13 02:33:57;;;;;;;9.93;4.43;;;13.70;98.50;;;;;;5074565;28;20909;-60
2022/06/13 02:36:32;;;;;;;9.33;5.17;;;13.80;98.70;;;;;;5074635;28;20490;-60
2022/06/13 02:39:03;;;;;;;12.70;5.70;;;13.80;98.70;;;;;;5074308;28;20465;-59
2022/06/13 02:41:36;;;;;;;8.27;4.80;;;13.80;98.70;;;;;;5074577;28;20441;-59
2022/06/13 02:44:07;;;;;;;10.70;5.07;;;13.80;98.90;;;;;;5074690;28;20474;-59
2022/06/13 02:46:40;;;;;;;8.83;4.90;;;13.80;99.10;;;;;;5074475;28;20518;-59
2022/06/13 02:49:13;;;;;;;11.47;5.87;;;13.70;99.30;;;;;;5073280;28;20530;-59
2022/06/13 02:51:46;;;;;;;13.23;5.20;;;13.70;99.50;;;;;;5074588;28;20487;-59
2022/06/13 02:54:19;;;;;;;13.90;5.17;;;13.70;99.80;;;;;;5073908;28;20526;-59
2022/06/13 03:00:00;;;;;;;8.50;4.73;;;13.70;99.90;;;;;;5073939;28;20474;-59
2022/06/13 03:02:32;;;;;;;9.23;4.80;;;13.70;99.90;;;;;;5073856;28;20492;-59
2022/06/13 03:05:09;;;;;;;5.87;4.10;;;13.60;99.90;;;;;;5073565;28;20533;-59
2022/06/13 03:07:45;;;;;;;8.33;4.50;;;13.60;99.90;;;;;;5073942;28;20500;-59
2022/06/13 03:10:19;;;;;;;10.90;5.20;;;13.60;99.90;;;;;;5073675;28;20531;-59
2022/06/13 03:12:54;;;;;;;8.13;4.67;;;13.60;99.90;;;;;;5073266;28;20427;-59
2022/06/13 03:15:28;;;;;;;9.20;5.30;;;13.60;99.90;;;;;;5073433;28;20884;-59
2022/06/13 03:18:01;;;;;;;6.07;4.60;;;13.60;99.90;;;;;;5073380;28;20434;-59
2022/06/13 03:20:32;;;;;;;13.03;4.80;;;13.60;99.90;;;;;;5073190;28;20431;-59
2022/06/13 03:23:06;;;;;;;11.13;5.70;;;13.60;99.90;;;;;;5073237;28;20491;-59
2022/06/13 03:25:39;;;;;;;13.70;5.83;;;13.60;99.90;;;;;;5073207;28;20426;-59
2022/06/13 03:28:14;;;;;;;8.37;4.50;;;13.70;99.90;;;;;;5073454;28;20517;-59
2022/06/13 03:30:46;;;;;;;14.60;5.43;;;13.70;99.90;;;;;;5073615;28;20838;-59
2022/06/13 03:36:08;;;;;;;9.27;4.87;;;13.80;99.90;;;;;;5073329;28;20560;-57
2022/06/13 03:38:39;;;;;;;7.57;4.17;;;13.90;99.90;;;;;;5072973;28;20501;-57
2022/06/13 03:41:11;;;;;;;13.00;5.70;;;13.90;99.90;;;;;;5073380;28;20435;-58
2022/06/13 03:43:44;;;;;;;10.50;5.93;;;14.00;99.90;;;;;;5072911;28;20431;-57
2022/06/13 03:46:19;;;;;;;17.13;12.40;;;14.00;99.90;;;;;;5072856;28;20444;-58
2022/06/13 03:48:51;;;;;;;23.97;12.97;;;14.10;99.90;;;;;;5072821;28;20865;-59
2022/06/13 03:51:23;;;;;;;20.03;17.93;;;14.10;99.90;;;;;;5073113;28;20427;-60
2022/06/13 03:53:56;;;;;;;22.20;16.23;;;14.10;99.90;;;;;;5072795;28;20470;-60
2022/06/13 03:56:29;;;;;;;21.83;18.10;;;14.10;99.90;;;;;;5073037;28;20513;-59
2022/06/13 03:59:03;;;;;;;22.63;14.23;;;14.10;99.80;;;;;;5073019;28;20473;-59
2022/06/13 04:01:35;;;;;;;11.50;9.40;;;14.10;99.70;;;;;;5072847;28;21000;-59
2022/06/13 04:04:03;;;;;;;13.20;7.70;;;14.20;99.70;;;;;;5072770;28;20435;-59
2022/06/13 04:09:58;;;;;;;13.60;7.30;;;14.30;99.40;;;;;;5110970;27;20612;-59
2022/06/13 04:12:52;;;;;;;8.83;6.30;;;14.30;99.30;;;;;;5110500;28;20528;-60
2022/06/13 04:15:49;;;;;;;13.30;5.77;;;14.40;99.00;;;;;;5110525;28;20424;-59
2022/06/13 04:18:28;;;;;;;11.13;5.80;;;14.40;98.80;;;;;;5110739;28;20460;-59
2022/06/13 04:21:01;;;;;;;11.90;5.27;;;14.40;98.70;;;;;;5110758;28;20460;-59
2022/06/13 04:23:36;;;;;;;11.27;4.90;;;14.40;98.70;;;;;;5110947;28;20432;-59
2022/06/13 04:26:11;;;;;;;10.60;4.93;;;14.40;98.60;;;;;;5110446;28;20432;-59
2022/06/13 04:28:47;;;;;;;7.20;4.43;;;14.50;98.40;;;;;;5110450;28;20509;-59
2022/06/13 04:31:18;;;;;;;7.43;4.90;;;14.50;98.20;;;;;;5111033;28;20479;-59
2022/06/13 04:33:51;;;;;;;11.77;4.87;;;14.50;98.10;;;;;;5110696;28;20429;-59
2022/06/13 04:36:20;;;;;;;9.90;5.30;;;14.40;98.20;;;;;;5110309;28;20433;-59
2022/06/13 04:38:52;;;;;;;8.57;5.43;;;14.50;98.20;;;;;;5110561;28;20497;-59
2022/06/13 04:41:24;;;;;;;7.80;4.47;;;14.50;98.20;;;;;;5110261;28;20918;-59
2022/06/13 04:43:56;;;;;;;10.03;5.03;;;14.50;98.20;;;;;;5110486;28;20524;-59
2022/06/13 04:46:26;;;;;;;12.33;4.83;;;14.60;98.10;;;;;;5109994;28;20469;-59
2022/06/13 04:48:56;;;;;;;13.50;5.60;;;14.70;98.00;;;;;;5110177;28;20489;-59
2022/06/13 04:51:27;;;;;;;8.70;4.50;;;14.70;97.80;;;;;;5106043;28;20493;-59
2022/06/13 04:53:58;;;;;;;9.00;4.03;;;14.80;97.70;;;;;;5107115;28;20642;-59
2022/06/13 04:56:27;;;;;;;11.97;5.80;;;14.80;97.60;;;;;;5108116;28;20558;-59
2022/06/13 04:58:56;;;;;;;11.73;4.90;;;14.80;97.60;;;;;;5109640;28;20469;-60
2022/06/13 05:01:27;;;;;;;8.80;4.60;;;14.80;97.60;;;;;;5107244;28;20465;-60
2022/06/13 05:03:56;;;;;;;9.47;4.60;;;14.80;97.20;;;;;;5106718;28;20497;-58
2022/06/13 05:06:30;;;;;;;14.13;4.83;;;14.80;96.90;;;;;;5100369;28;20478;-59
2022/06/13 05:09:01;;;;;;;9.33;4.87;;;14.80;96.70;;;;;;5092608;28;20527;-59
2022/06/13 05:11:34;;;;;;;8.13;4.50;;;14.80;96.60;;;;;;5104282;28;20887;-59
2022/06/13 05:14:05;;;;;;;12.10;5.73;;;14.80;96.40;;;;;;5096751;28;20549;-59
2022/06/13 05:16:47;;;;;;;11.83;5.63;;;14.90;96.10;;;;;;5105770;28;20465;-59
2022/06/13 05:19:44;;;;;;;14.37;6.40;;;15.00;95.80;;;;;;5100877;28;20490;-59
2022/06/13 05:22:28;;;;;;;10.73;4.60;;;15.10;95.20;;;;;;5075670;28;20816;-58
2022/06/13 05:25:18;;;;;;;9.77;5.13;;;15.30;94.70;;;;;;5075377;28;20436;-58
2022/06/13 05:27:47;;;;;;;11.00;4.63;;;15.40;94.30;;;;;;5075450;28;20432;-58
2022/06/13 05:30:16;;;;;;;8.33;4.20;;;15.60;93.90;;;;;;5075799;28;20814;-58
2022/06/13 05:32:44;;;;;;;10.43;4.70;;;15.80;93.50;;;;;;5091355;28;20507;-58
2022/06/13 05:35:14;;;;;;;10.77;4.73;;;16.00;92.90;;;;;;5095091;28;20455;-58
2022/06/13 05:37:42;;;;;;;10.40;3.83;;;16.10;92.30;;;;;;5095436;28;20451;-58
2022/06/13 05:40:14;;;;;;;9.77;4.00;;;16.30;92.00;;;;;;5095671;28;20455;-58
2022/06/13 05:42:42;;;;;;;9.10;4.10;;;16.60;91.40;;;;;;5095560;28;20533;-58
2022/06/13 05:45:14;;;;;;;11.17;4.30;;;16.90;90.80;;;;;;5096038;28;20446;-58
2022/06/13 05:47:42;;;;;;;9.87;4.17;;;17.10;89.40;;;;;;5095746;28;20435;-58
2022/06/13 05:50:15;;;;;;;10.10;4.60;;;17.20;87.80;;;;;;5095210;28;20580;-58
2022/06/13 05:52:43;;;;;;;7.57;4.97;;;17.30;86.00;;;;;;5094497;28;20969;-58
2022/06/13 05:55:10;;;;;;;11.57;4.43;;;17.20;85.50;;;;;;5087868;28;20937;-59
2022/06/13 05:57:38;;;;;;;12.83;4.50;;;17.20;85.10;;;;;;5089948;28;20529;-58
2022/06/13 06:00:10;;;;;;;10.73;4.30;;;17.20;85.10;;;;;;5094780;28;20874;-58
2022/06/13 06:02:39;;;;;;;7.40;3.63;;;17.10;84.80;;;;;;5087317;28;20802;-58
2022/06/13 06:05:07;;;;;;;13.47;3.80;;;17.00;84.50;;;;;;5075336;28;20446;-58
2022/06/13 06:07:34;;;;;;;13.50;4.13;;;16.90;84.60;;;;;;5087251;28;20529;-60
2022/06/13 06:10:02;;;;;;;5.87;3.60;;;16.80;84.60;;;;;;5091088;28;20521;-59
2022/06/13 06:12:29;;;;;;;8.93;4.03;;;16.70;84.60;;;;;;5091355;28;20509;-60
2022/06/13 06:14:56;;;;;;;8.30;4.20;;;16.60;85.10;;;;;;5094507;28;20486;-60
2022/06/13 06:17:23;;;;;;;11.03;4.53;;;16.60;85.10;;;;;;5093792;28;20460;-59
2022/06/13 06:19:53;;;;;;;6.00;3.43;;;16.60;85.00;;;;;;5076787;28;20563;-59
2022/06/13 06:22:21;;;;;;;7.57;3.60;;;16.70;85.20;;;;;;5094883;28;20472;-60
2022/06/13 06:24:48;;;;;;;12.03;3.80;;;16.70;85.40;;;;;;5093497;28;20491;-60
2022/06/13 06:27:16;;;;;;;7.70;4.23;;;16.80;85.20;;;;;;5094468;28;20468;-60
2022/06/13 06:29:43;;;;;;;9.40;3.83;;;17.00;84.60;;;;;;5093781;28;20485;-60
2022/06/13 06:32:11;;;;;;;9.80;4.40;;;17.10;83.80;;;;;;5092878;28;20480;-60
2022/06/13 06:34:38;;;;;;;11.17;3.30;;;17.20;83.20;;;;;;5094252;28;20536;-60
2022/06/13 06:37:07;;;;;;;6.90;3.97;;;17.40;82.70;;;;;;5094195;28;20439;-60
2022/06/13 06:39:34;;;;;;;10.70;4.43;;;17.50;81.90;;;;;;5092142;28;20537;-60
2022/06/13 06:42:02;;;;;;;12.00;4.03;;;17.60;80.90;;;;;;5092020;28;20490;-60
2022/06/13 06:44:29;;;;;;;9.13;3.83;;;17.70;79.90;;;;;;5092658;28;20446;-59
2022/06/13 06:46:56;;;;;;;10.97;3.70;;;17.70;79.70;;;;;;5092193;28;20555;-60
2022/06/13 06:49:23;;;;;;;9.43;4.07;;;17.70;79.70;;;;;;5091054;28;20482;-60
2022/06/13 06:51:51;;;;;;;6.30;3.53;;;17.70;79.60;;;;;;5092726;28;20446;-58
2022/06/13 06:59:55;;;;;;;8.30;4.10;;;17.90;79.20;;;;;;5093702;28;20898;-59
2022/06/13 07:02:24;;;;;;;8.47;3.83;;;17.90;78.70;;;;;;5092054;28;20504;-60
2022/06/13 07:04:53;;;;;;;7.33;3.47;;;18.10;78.10;;;;;;5093589;28;20447;-59
2022/06/13 07:07:21;;;;;;;10.97;4.43;;;18.10;77.20;;;;;;5076309;28;20458;-59
2022/06/13 07:09:49;;;;;;;9.27;4.20;;;18.10;77.00;;;;;;5074514;28;20483;-62
2022/06/13 07:12:17;;;;;;;13.77;5.07;;;18.00;76.40;;;;;;5092474;28;20478;-61
2022/06/13 07:14:45;;;;;;;14.27;4.00;;;17.90;75.50;;;;;;5093315;28;20481;-62
2022/06/13 07:17:13;;;;;;;7.30;3.40;;;17.70;76.30;;;;;;5093871;28;20450;-60
2022/06/13 07:19:43;;;;;;;8.17;3.13;;;17.80;76.80;;;;;;5092902;28;20469;-60
2022/06/13 07:22:16;;;;;;;10.43;4.00;;;17.90;76.10;;;;;;5092970;28;20479;-59
2022/06/13 07:24:45;;;;;;;7.30;3.00;;;18.00;74.70;;;;;;5093607;28;20426;-60
2022/06/13 07:27:14;;;;;;;7.03;3.73;;;18.00;74.00;;;;;;5092451;28;20450;-63
2022/06/13 07:29:42;;;;;;;8.67;3.73;;;18.10;73.50;;;;;;5092967;28;20521;-61
2022/06/13 07:32:15;;;;;;;6.37;3.50;;;18.20;72.40;;;;;;5092422;28;20530;-61
2022/06/13 07:34:44;;;;;;;7.30;3.17;;;18.40;71.00;;;;;;5093127;28;20587;-62
2022/06/13 07:38:16;;;;;;;10.40;4.30;;;18.40;70.50;;;;;;5092870;28;20446;-59
2022/06/13 07:40:02;;;;;;;6.33;3.80;;;18.40;70.30;;;;;;5091749;28;20589;-61
2022/06/13 07:42:33;;;;;;;8.63;2.87;;;18.40;70.20;;;;;;5092257;28;20482;-58
2022/06/13 07:45:00;;;;;;;10.60;3.90;;;18.40;69.00;;;;;;5078095;28;20450;-58
2022/06/13 07:47:28;;;;;;;8.83;3.30;;;18.30;68.80;;;;;;5088312;28;20453;-57
2022/06/13 07:49:55;;;;;;;6.37;3.83;;;18.30;69.40;;;;;;5092583;28;20978;-57
2022/06/13 07:52:22;;;;;;;10.07;4.27;;;18.40;69.50;;;;;;5092490;28;20532;-57
2022/06/13 07:54:49;;;;;;;6.70;3.50;;;18.60;69.30;;;;;;5091397;28;20487;-58
2022/06/13 07:57:18;;;;;;;12.37;3.60;;;18.90;67.90;;;;;;5092252;28;20490;-58
2022/06/13 07:59:47;;;;;;;10.87;3.37;;;19.20;65.10;;;;;;5092683;28;20467;-57
2022/06/13 08:02:17;;;;;;;6.90;2.80;;;19.30;62.90;;;;;;5091669;28;20559;-58
2022/06/13 08:04:44;;;;;;;5.10;2.63;;;19.50;60.90;;;;;;5092640;28;20546;-59
2022/06/13 08:07:11;;;;;;;8.93;3.10;;;19.50;57.90;;;;;;5092810;28;20531;-58
2022/06/13 08:09:39;;;;;;;9.57;3.60;;;19.50;57.60;;;;;;5092315;28;20527;-58
2022/06/13 08:12:07;;;;;;;6.80;3.37;;;19.50;57.80;;;;;;5091894;28;20457;-59
2022/06/13 08:14:35;;;;;;;7.50;3.03;;;19.50;57.60;;;;;;5092395;28;20812;-57
2022/06/13 08:17:04;;;;;;;6.10;2.70;;;19.50;56.90;;;;;;5092370;28;20449;-57
2022/06/13 08:19:31;;;;;;;7.50;3.33;;;19.60;55.80;;;;;;5091396;28;20500;-57
2022/06/13 08:21:58;;;;;;;9.57;3.30;;;19.70;55.00;;;;;;5092304;28;20448;-58
2022/06/13 08:24:26;;;;;;;6.10;2.50;;;19.80;54.70;;;;;;5092578;28;20539;-58
2022/06/13 08:26:53;;;;;;;5.60;2.90;;;19.90;54.50;;;;;;5090992;28;20522;-58
2022/06/13 08:29:20;;;;;;;4.90;3.13;;;20.00;53.80;;;;;;5092513;28;20485;-58
2022/06/13 08:31:48;;;;;;;6.53;2.73;;;20.10;53.00;;;;;;5092811;28;20484;-57
2022/06/13 08:34:16;;;;;;;4.47;2.80;;;20.10;53.00;;;;;;5092673;28;20477;-58
2022/06/13 08:36:44;;;;;;;4.90;2.47;;;20.00;53.30;;;;;;5091883;28;20453;-58
2022/06/13 08:39:11;;;;;;;4.87;2.60;;;19.80;53.70;;;;;;5092434;28;20491;-58
2022/06/13 08:41:45;;;;;;;3.53;2.40;;;19.70;53.20;;;;;;5092312;28;20453;-59
2022/06/13 08:44:41;;;;;;;6.43;2.57;;;19.60;52.60;;;;;;5092589;28;20433;-57
2022/06/13 08:47:16;;;;;;;5.87;2.50;;;19.60;51.80;;;;;;5091651;28;20503;-56
2022/06/13 08:49:50;;;;;;;6.17;2.97;;;19.70;51.30;;;;;;5091440;28;20524;-60
2022/06/13 08:52:28;;;;;;;9.13;2.60;;;19.70;51.40;;;;;;5092437;28;20425;-58
2022/06/13 08:55:07;;;;;;;5.70;2.50;;;19.70;51.50;;;;;;5093255;28;20435;-57
2022/06/13 08:57:37;;;;;;;6.00;2.60;;;19.60;51.60;;;;;;5095155;28;20482;-58
2022/06/13 09:00:08;;;;;;;7.23;2.57;;;19.70;51.20;;;;;;5094809;28;21047;-59
2022/06/13 09:02:41;;;;;;;3.80;2.10;;;19.70;50.70;;;;;;5096110;28;20485;-58
2022/06/13 09:05:15;;;;;;;3.90;2.23;;;19.90;50.60;;;;;;5095943;28;20784;-58
2022/06/13 09:07:50;;;;;;;4.40;2.30;;;20.10;50.60;;;;;;5078059;28;20447;-58
2022/06/13 09:10:25;;;;;;;4.90;2.30;;;20.20;49.10;;;;;;5093194;28;20827;-60
2022/06/13 09:12:58;;;;;;;4.93;2.60;;;20.30;48.70;;;;;;5095390;28;20435;-59
2022/06/13 09:15:30;;;;;;;4.90;2.30;;;20.50;48.60;;;;;;5095845;28;20571;-59
2022/06/13 09:18:02;;;;;;;5.40;2.10;;;20.50;48.30;;;;;;5094778;28;20473;-58
2022/06/13 09:20:36;;;;;;;5.97;2.40;;;20.40;48.00;;;;;;5095054;28;20423;-58
2022/06/13 09:23:11;;;;;;;5.00;2.70;;;20.30;47.90;;;;;;5075502;28;20547;-61
2022/06/13 09:25:45;;;;;;;4.77;2.60;;;20.10;48.20;;;;;;5074999;28;20438;-57
2022/06/13 09:28:19;;;;;;;10.83;2.70;;;19.80;48.90;;;;;;5075136;28;20523;-57
2022/06/13 09:30:50;;;;;;;6.37;2.53;;;19.70;49.60;;;;;;5092255;28;20500;-59
2022/06/13 09:33:22;;;;;;;5.67;2.00;;;19.50;50.10;;;;;;5095423;28;20448;-59
2022/06/13 09:35:56;;;;;;;5.87;2.73;;;19.60;50.60;;;;;;5095537;28;20847;-59
2022/06/13 09:38:27;;;;;;;7.10;2.33;;;19.90;50.40;;;;;;5094309;28;20506;-59
2022/06/13 09:41:11;;;;;;;5.67;2.03;;;20.30;49.90;;;;;;5094520;28;20445;-57
2022/06/13 09:43:49;;;;;;;5.50;2.67;;;20.70;48.40;;;;;;5095515;28;20431;-59
2022/06/13 09:46:22;;;;;;;5.07;2.33;;;20.80;47.40;;;;;;5095080;28;20509;-59
2022/06/13 09:51:31;;;;;;;9.00;2.20;;;20.50;46.60;;;;;;5055561;28;20492;-60
2022/06/13 09:54:05;;;;;;;5.17;1.83;;;19.90;48.70;;;;;;5054991;28;20439;-60
2022/06/13 09:56:37;;;;;;;4.77;1.83;;;18.90;51.50;;;;;;5042456;28;20433;-61
2022/06/13 09:59:17;;;;;;;10.03;2.53;;;17.80;52.90;;;;;;5044143;28;20433;-62
2022/06/13 10:01:49;;;;;;;4.50;2.60;;;17.10;55.70;;;;;;5048936;28;20439;-61
2022/06/13 10:04:22;;;;;;;4.20;2.20;;;16.30;61.70;;;;;;5082186;28;20431;-62
2022/06/13 10:06:57;;;;;;;3.53;2.30;;;15.60;70.50;;;;;;5084540;28;20439;-62
2022/06/13 10:09:34;;;;;;;3.30;1.90;;;15.10;79.80;;;;;;5081786;28;20467;-61
2022/06/13 10:12:08;;;;;;;3.40;1.97;;;14.90;86.60;;;;;;5060483;28;20481;-60
2022/06/13 10:14:59;;;;;;;3.80;2.40;;;14.80;89.40;;;;;;5060559;28;20488;-62
2022/06/13 10:17:42;;;;;;;3.30;2.47;;;14.80;90.60;;;;;;5061650;28;20979;-61
2022/06/13 10:20:18;;;;;;;3.80;2.13;;;14.90;90.70;;;;;;5055231;28;20464;-63
2022/06/13 10:22:53;;;;;;;4.00;2.47;;;15.20;90.50;;;;;;5069620;28;20474;-61
2022/06/13 10:25:35;;;;;;;2.47;1.77;;;15.40;90.30;;;;;;5074724;28;20432;-60
2022/06/13 10:28:16;;;;;;;5.23;2.10;;;15.80;89.30;;;;;;5075068;28;20451;-61
2022/06/13 10:30:54;;;;;;;3.93;2.20;;;16.30;87.80;;;;;;5073932;28;20520;-59
2022/06/13 10:33:45;;;;;;;5.57;2.13;;;16.80;85.20;;;;;;5074747;28;20506;-60
2022/06/13 10:36:22;;;;;;;3.10;2.37;;;17.50;81.10;;;;;;5074013;28;20462;-62
2022/06/13 10:39:10;;;;;;;3.47;2.00;;;18.00;75.40;;;;;;5072059;28;20437;-62
2022/06/13 10:41:41;;;;;;;5.50;2.30;;;18.70;70.40;;;;;;5073377;28;20218;-62
2022/06/13 10:44:12;;;;;;;4.87;2.10;;;19.20;66.50;;;;;;5073950;28;20423;-62
2022/06/13 10:46:43;;;;;;;4.60;1.90;;;19.60;64.10;;;;;;5073858;28;20954;-61
2022/06/13 10:49:17;;;;;;;7.47;1.70;;;19.70;60.00;;;;;;5065292;28;20470;-61
2022/06/13 10:51:46;;;;;;;4.47;2.57;;;19.30;57.20;;;;;;5073978;28;20474;-61
2022/06/13 10:54:19;;;;;;;3.90;1.97;;;18.50;60.20;;;;;;5074092;28;20435;-59
2022/06/13 10:56:51;;;;;;;5.40;3.03;;;17.40;67.90;;;;;;5073580;28;20428;-61
2022/06/13 10:59:25;;;;;;;4.17;2.70;;;15.90;85.60;;;;;;5073696;28;20520;-60
2022/06/13 11:02:00;;;;;;;5.30;2.77;;;14.70;93.10;;;;;;5073954;28;20420;-60
2022/06/13 11:04:28;;;;;;;5.40;3.00;;;14.20;95.50;;;;;;5072269;28;20438;-60
2022/06/13 11:06:59;;;;;;;4.67;2.63;;;13.90;96.50;;;;;;5073465;28;20942;-60
2022/06/13 11:09:39;;;;;;;9.20;3.37;;;13.90;97.10;;;;;;5072512;28;20567;-58
2022/06/13 11:12:20;;;;;;;3.93;3.03;;;14.00;97.40;;;;;;5073347;28;20488;-61
2022/06/13 11:23:17;;;;;;;5.67;3.17;;;16.30;97.10;;;;;;5072607;28;20493;-61
2022/06/13 11:25:54;;;;;;;4.03;2.93;;;16.90;95.30;;;;;;5074674;28;20444;-58
2022/06/13 11:28:25;;;;;;;7.87;3.30;;;17.20;93.90;;;;;;5076404;28;20433;-59
2022/06/13 11:30:53;;;;;;;7.07;2.67;;;17.20;92.20;;;;;;5075914;28;20494;-59
2022/06/13 11:33:40;;;;;;;4.00;2.93;;;16.70;91.80;;;;;;5073988;28;20445;-59
2022/06/13 11:36:22;;;;;;;4.30;2.30;;;15.70;94.70;;;;;;5074313;28;20451;-60
2022/06/13 11:38:55;;;;;;;4.70;3.10;;;15.00;97.20;;;;;;5074769;28;20432;-59
2022/06/13 11:41:29;;;;;;;6.20;2.80;;;14.70;99.00;;;;;;5073760;28;20459;-58
2022/06/13 11:44:02;;;;;;;5.40;2.47;;;14.50;99.90;;;;;;5073527;28;20529;-58
2022/06/13 11:46:39;;;;;;;3.20;2.10;;;14.50;99.90;;;;;;5073403;28;20486;-58
2022/06/13 11:49:22;;;;;;;5.10;2.07;;;14.50;99.90;;;;;;5071809;28;20441;-61
2022/06/13 11:51:53;;;;;;;5.00;1.60;;;14.50;99.90;;;;;;5073273;28;20569;-60
2022/06/13 11:54:23;;;;;;;4.97;1.90;;;14.50;99.90;;;;;;5073146;28;20477;-61
2022/06/13 11:57:20;;;;;;;1.83;1.53;;;14.60;99.90;;;;;;5072159;28;20911;-60
2022/06/13 11:59:51;;;;;;;2.30;1.57;;;14.90;99.20;;;;;;5072812;28;20520;-61
2022/06/13 12:02:21;;;;;;;2.53;1.20;;;15.40;98.40;;;;;;5073077;28;20794;-61
2022/06/13 12:04:49;;;;;;;2.80;1.30;;;16.20;96.20;;;;;;5072933;28;20447;-67
2022/06/13 12:07:24;;;;;;;2.60;1.67;;;16.90;93.60;;;;;;5079589;28;20480;-60
2022/06/13 12:09:57;;;;;;;2.50;1.33;;;17.60;91.30;;;;;;5072651;28;20465;-62
2022/06/13 12:12:42;;;;;;;1.73;1.50;;;18.30;87.40;;;;;;5076502;28;20974;-61
2022/06/13 12:15:11;;;;;;;1.70;1.50;;;19.10;83.40;;;;;;5081360;28;20443;-61
2022/06/13 12:17:46;;;;;;;5.00;1.60;;;19.80;77.70;;;;;;5101519;28;20438;-60
2022/06/13 12:20:19;;;;;;;3.50;1.73;;;20.60;72.50;;;;;;5098206;28;20462;-61
2022/06/13 12:22:54;;;;;;;2.93;1.40;;;21.20;68.00;;;;;;5094975;28;20435;-61
2022/06/13 12:25:26;;;;;;;2.20;1.60;;;21.60;62.40;;;;;;5092338;28;20847;-61
2022/06/13 12:28:03;;;;;;;2.30;1.20;;;21.50;59.80;;;;;;5093944;28;20430;-61
2022/06/13 12:30:47;;;;;;;2.17;1.60;;;21.10;57.80;;;;;;5093881;28;20803;-63
2022/06/13 12:33:39;;;;;;;2.50;1.40;;;20.30;59.10;;;;;;5097081;28;20432;-62
2022/06/13 12:36:19;;;;;;;1.57;1.27;;;20.00;59.80;;;;;;5097525;28;20429;-62
2022/06/13 12:39:12;;;;;;;3.93;1.30;;;19.80;60.10;;;;;;5097301;28;20986;-61
2022/06/13 12:41:49;;;;;;;2.73;1.33;;;19.90;59.70;;;;;;5097288;28;20453;-62
2022/06/13 12:44:37;;;;;;;4.37;1.53;;;20.10;58.30;;;;;;5097031;28;20883;-61
2022/06/13 12:47:20;;;;;;;2.20;1.13;;;20.20;58.10;;;;;;5096701;28;20440;-61
2022/06/13 12:50:04;;;;;;;3.73;1.30;;;20.20;58.00;;;;;;5096567;28;20523;-61
2022/06/13 12:52:52;;;;;;;2.20;1.13;;;20.20;58.00;;;;;;5096739;28;20945;-62
2022/06/13 12:55:39;;;;;;;1.97;1.43;;;20.20;57.10;;;;;;5096563;28;20425;-61
2022/06/13 12:58:22;;;;;;;3.40;1.40;;;20.30;56.60;;;;;;5096980;28;20982;-62
2022/06/13 13:01:02;;;;;;;2.07;1.00;;;20.40;56.20;;;;;;5096651;28;20465;-62
2022/06/13 13:04:03;;;;;;;3.00;1.30;;;20.40;55.50;;;;;;5099176;28;20430;-62
2022/06/13 13:06:42;;;;;;;3.03;1.77;;;20.30;54.90;;;;;;5100049;28;20429;-62
2022/06/13 13:09:28;;;;;;;2.37;1.07;;;20.30;54.80;;;;;;5097915;28;20422;-60
2022/06/13 13:12:13;;;;;;;3.67;1.23;;;20.40;54.40;;;;;;5097692;28;20522;-61
2022/06/13 13:14:47;;;;;;;1.63;1.10;;;20.40;54.20;;;;;;5097241;28;20468;-62
2022/06/13 13:17:24;;;;;;;3.70;1.30;;;20.50;54.70;;;;;;5096614;28;20506;-61
2022/06/13 13:20:00;;;;;;;2.33;1.00;;;20.60;54.60;;;;;;5096893;28;20458;-62
2022/06/13 13:22:35;;;;;;;2.73;1.10;;;20.70;53.90;;;;;;5096542;28;20476;-61
2022/06/13 13:25:17;;;;;;;3.33;0.90;;;20.70;52.50;;;;;;5097019;28;20429;-62
2022/06/13 13:27:54;;;;;;;3.90;1.13;;;20.80;51.80;;;;;;5096353;28;20475;-61
2022/06/13 13:30:26;;;;;;;1.37;0.80;;;21.00;50.30;;;;;;5096681;28;20469;-62
2022/06/13 13:33:13;;;;;;;3.23;1.23;;;21.00;48.60;;;;;;5096846;28;20460;-60
2022/06/13 13:35:47;;;;;;;2.13;1.10;;;21.00;47.50;;;;;;5097922;28;20427;-62
2022/06/13 13:38:21;;;;;;;5.87;1.10;;;20.90;46.70;;;;;;5097318;28;20504;-63
2022/06/13 13:40:53;;;;;;;1.20;1.07;;;20.80;45.40;;;;;;5097242;28;20493;-62
2022/06/13 13:43:28;;;;;;;5.33;1.30;;;20.70;45.50;;;;;;5097612;28;20426;-63
2022/06/13 13:46:01;;;;;;;2.77;0.90;;;20.60;45.90;;;;;;5096668;28;20429;-62